Time,TemperatureF,DewpointF,PressureIn,WindDirection,WindDirectionDegrees,WindSpeedMPH,WindSpeedGustMPH,Humidity,HourlyPrecipIn,Conditions,Clouds,dailyrainin,SoftwareType,DateUTC
2013-06-29 00:00:00,54.0,48.0,30.04,North,360,13.0,23.0,80,-99.99,,,-99.99,,2013-06-29 08:00:00,
2013-06-29 00:52:00,54.0,48.0,30.04,North,360,13.0,23.0,80,-99.99,,,-99.99,,2013-06-29 08:52:00,
2013-06-29 02:00:00,53.0,48.0,30.04,NNW,340,13.0,23.0,82,-99.99,,,-99.99,,2013-06-29 10:00:00,
2013-06-29 02:52:00,53.0,48.0,30.04,NNW,340,13.0,23.0,82,-99.99,,,-99.99,,2013-06-29 10:52:00,
2013-06-29 03:00:00,51.0,46.0,30.04,North,350,10.0,17.0,82,-99.99,,,-99.99,,2013-06-29 11:00:00,
2013-06-29 03:53:00,51.0,46.0,30.04,North,350,10.0,17.0,82,-99.99,,,-99.99,,2013-06-29 11:53:00,
2013-06-29 04:00:00,52.0,46.0,30.03,North,10,6.0,12.0,80,-99.99,,,-99.99,,2013-06-29 12:00:00,
2013-06-29 04:52:00,52.0,46.0,30.03,North,10,6.0,12.0,80,-99.99,,,-99.99,,2013-06-29 12:52:00,
2013-06-29 05:00:00,50.0,46.0,30.03,North,360,6.0,13.0,86,-99.99,,,-99.99,,2013-06-29 13:00:00,
2013-06-29 05:53:00,50.0,46.0,30.03,North,360,6.0,13.0,86,-99.99,,,-99.99,,2013-06-29 13:53:00,
2013-06-29 06:00:00,51.0,46.0,30.03,NNW,340,8.0,13.0,82,-99.99,,,-99.99,,2013-06-29 14:00:00,
2013-06-29 06:53:00,51.0,46.0,30.03,NNW,340,8.0,13.0,82,-99.99,,,-99.99,,2013-06-29 14:53:00,
2013-06-29 07:00:00,52.0,47.0,30.03,North,350,3.0,9.0,82,-99.99,,,-99.99,,2013-06-29 15:00:00,
2013-06-29 07:53:00,52.0,47.0,30.03,North,350,3.0,9.0,82,-99.99,,,-99.99,,2013-06-29 15:53:00,
2013-06-29 09:00:00,53.0,47.0,30.03,North,0,0.0,5.0,79,-99.99,,,-99.99,,2013-06-29 17:00:00,
2013-06-29 09:52:00,53.0,47.0,30.03,North,0,0.0,5.0,79,-99.99,,,-99.99,,2013-06-29 17:52:00,
2013-06-29 11:00:00,54.0,49.0,30.04,South,170,6.0,7.0,83,-99.99,,,-99.99,,2013-06-29 19:00:00,
2013-06-29 11:53:00,54.0,49.0,30.04,South,170,6.0,7.0,83,-99.99,,,-99.99,,2013-06-29 19:53:00,
2013-06-29 14:00:00,56.0,51.0,30.07,SSE,150,6.0,15.0,83,-99.99,,,-99.99,,2013-06-29 22:00:00,
2013-06-29 15:00:00,59.0,51.0,30.07,South,180,9.0,15.0,74,-99.99,,,-99.99,,2013-06-29 23:00:00,
2013-06-29 15:52:00,59.0,51.0,30.07,South,180,9.0,15.0,74,-99.99,,,-99.99,,2013-06-29 23:52:00,
2013-06-29 17:00:00,63.0,51.0,30.06,North,0,0.0,-999.0,65,-99.99,,,-99.99,,2013-06-30 01:00:00,
2013-06-29 17:53:00,63.0,51.0,30.06,North,0,0.0,-999.0,65,-99.99,,,-99.99,,2013-06-30 01:53:00,
2013-06-29 18:00:00,59.0,51.0,30.05,North,0,0.0,7.0,74,-99.99,,,-99.99,,2013-06-30 02:00:00,
2013-06-29 18:53:00,59.0,51.0,30.05,North,0,0.0,7.0,74,-99.99,,,-99.99,,2013-06-30 02:53:00,
2013-06-29 19:00:00,58.0,51.0,30.05,NNW,330,3.0,9.0,77,-99.99,,,-99.99,,2013-06-30 03:00:00,
2013-06-29 19:53:00,58.0,51.0,30.05,NNW,330,3.0,9.0,77,-99.99,,,-99.99,,2013-06-30 03:53:00,
2013-06-29 20:00:00,59.0,50.0,30.05,North,350,5.0,7.0,72,-99.99,,,-99.99,,2013-06-30 04:00:00,
2013-06-29 20:52:00,59.0,50.0,30.05,North,350,5.0,7.0,72,-99.99,,,-99.99,,2013-06-30 04:52:00,
2013-06-29 21:00:00,59.0,50.0,30.05,North,0,0.0,8.0,72,-99.99,,,-99.99,,2013-06-30 05:00:00,
2013-06-29 21:53:00,59.0,50.0,30.05,North,0,0.0,8.0,72,-99.99,,,-99.99,,2013-06-30 05:53:00,
2013-06-29 23:00:00,55.0,47.0,30.07,North,350,12.0,16.0,74,-99.99,,,-99.99,,2013-06-30 07:00:00,
2013-06-29 23:53:00,55.0,47.0,30.07,North,350,12.0,16.0,74,-99.99,,,-99.99,,2013-06-30 07:53:00,